createdAt,value
2018-04-30T00:00:29.325Z,19.29
2018-04-30T00:01:29.343Z,19.38
2018-04-30T00:02:29.353Z,19.25
2018-04-30T00:03:29.371Z,19.32
2018-04-30T00:04:29.382Z,19.25
2018-04-30T00:05:29.396Z,19.31
2018-04-30T00:06:29.407Z,19.25
2018-04-30T00:07:29.418Z,19.28
2018-04-30T00:08:29.436Z,19.31
2018-04-30T00:09:29.452Z,19.31
2018-04-30T00:10:29.465Z,19.29
2018-04-30T00:11:29.503Z,19.31
2018-04-30T00:12:29.505Z,19.28
2018-04-30T00:13:29.500Z,19.35
2018-04-30T00:14:29.536Z,19.32
2018-04-30T00:15:29.532Z,19.29
2018-04-30T00:16:29.543Z,19.08
2018-04-30T00:17:29.555Z,19.10
2018-04-30T00:18:29.580Z,18.91
2018-04-30T00:19:29.585Z,18.87
2018-04-30T00:20:29.609Z,18.92
2018-04-30T00:21:29.608Z,18.90
2018-04-30T00:22:29.622Z,19.10
2018-04-30T00:23:29.640Z,19.17
2018-04-30T00:24:29.680Z,19.17
2018-04-30T00:25:29.703Z,19.33
2018-04-30T00:26:29.676Z,19.32
2018-04-30T00:27:29.690Z,19.42
2018-04-30T00:28:29.707Z,19.46
2018-04-30T00:29:29.718Z,19.51
2018-04-30T00:30:29.734Z,19.39
2018-04-30T00:31:29.743Z,19.51
2018-04-30T00:32:29.759Z,19.48
2018-04-30T00:33:29.785Z,19.53
2018-04-30T00:34:29.783Z,19.50
2018-04-30T00:35:29.797Z,19.60
2018-04-30T00:36:29.813Z,19.55
2018-04-30T00:37:29.824Z,19.47
2018-04-30T00:38:29.844Z,19.43
2018-04-30T00:39:29.883Z,19.40
2018-04-30T00:40:29.866Z,19.57
2018-04-30T00:41:29.882Z,19.46
2018-04-30T00:42:29.892Z,19.38
2018-04-30T00:43:29.901Z,19.39
2018-04-30T00:44:29.943Z,19.39
2018-04-30T00:45:30.047Z,19.29
2018-04-30T00:46:29.948Z,19.21
2018-04-30T00:47:29.957Z,19.17
2018-04-30T00:48:29.972Z,19.14
2018-04-30T00:49:29.983Z,19.13
2018-04-30T00:50:29.999Z,18.97
2018-04-30T00:51:30.012Z,18.84
2018-04-30T00:52:30.025Z,18.86
2018-04-30T00:53:30.037Z,18.74
2018-04-30T00:54:30.056Z,18.47
2018-04-30T00:55:30.066Z,18.57
2018-04-30T00:56:30.080Z,18.49
2018-04-30T00:57:30.094Z,18.50
2018-04-30T00:58:30.141Z,18.47
2018-04-30T00:59:30.121Z,18.44
2018-04-30T01:00:30.152Z,18.17
2018-04-30T01:01:30.142Z,18.07
2018-04-30T01:02:30.154Z,18.10
2018-04-30T01:03:30.230Z,18.00
2018-04-30T01:04:30.184Z,17.97
2018-04-30T01:05:30.198Z,18.02
2018-04-30T01:06:30.215Z,17.99
2018-04-30T01:07:30.230Z,18.02
2018-04-30T01:08:30.239Z,17.99
2018-04-30T01:09:30.250Z,17.91
2018-04-30T01:10:30.264Z,17.85
2018-04-30T01:11:30.281Z,17.87
2018-04-30T01:12:30.288Z,17.95
2018-04-30T01:13:30.299Z,17.99
2018-04-30T01:14:30.317Z,18.09
2018-04-30T01:15:30.349Z,18.02
2018-04-30T01:16:30.405Z,18.03
2018-04-30T01:17:30.363Z,18.17
2018-04-30T01:18:30.385Z,18.25
2018-04-30T01:19:30.383Z,18.21
2018-04-30T01:20:30.392Z,18.33
2018-04-30T01:21:30.404Z,18.40
2018-04-30T01:22:30.420Z,18.33
2018-04-30T01:23:30.475Z,18.46
2018-04-30T01:24:30.443Z,18.50
2018-04-30T01:25:30.460Z,18.42
2018-04-30T01:26:30.475Z,18.39
2018-04-30T01:27:30.484Z,18.29
2018-04-30T01:28:30.499Z,18.28
2018-04-30T01:29:30.506Z,18.19
2018-04-30T01:30:30.522Z,18.25
2018-04-30T01:31:30.572Z,18.22
2018-04-30T01:32:30.547Z,18.31
2018-04-30T01:33:30.563Z,18.33
2018-04-30T01:34:30.577Z,18.33
2018-04-30T01:35:30.584Z,18.28
2018-04-30T01:36:30.599Z,18.31
2018-04-30T01:37:30.614Z,18.33
2018-04-30T01:38:30.625Z,18.27
2018-04-30T01:39:30.636Z,18.18
2018-04-30T01:40:30.683Z,18.09
2018-04-30T01:41:30.664Z,17.99
2018-04-30T01:42:30.680Z,18.02
2018-04-30T01:43:30.688Z,17.88
2018-04-30T01:44:30.703Z,17.87
2018-04-30T01:45:30.719Z,17.87
2018-04-30T01:46:30.748Z,17.76
2018-04-30T01:47:30.751Z,17.82
2018-04-30T01:48:30.761Z,17.76
2018-04-30T01:49:30.774Z,17.81
2018-04-30T01:50:30.780Z,17.79
2018-04-30T01:51:30.792Z,17.64
2018-04-30T01:52:30.810Z,17.47
2018-04-30T01:53:30.838Z,17.29
2018-04-30T01:54:30.832Z,17.33
2018-04-30T01:55:30.847Z,17.20
2018-04-30T01:56:30.856Z,17.14
2018-04-30T01:57:30.872Z,17.13
2018-04-30T01:58:30.886Z,16.98
2018-04-30T01:59:30.902Z,16.88
2018-04-30T02:00:30.906Z,16.99
2018-04-30T02:01:30.921Z,16.80
2018-04-30T02:02:30.936Z,16.74
2018-04-30T02:03:30.957Z,16.63
2018-04-30T02:04:30.963Z,16.58
2018-04-30T02:05:30.972Z,16.58
2018-04-30T02:06:30.983Z,16.48
2018-04-30T02:07:30.995Z,16.59
2018-04-30T02:08:31.013Z,16.41
2018-04-30T02:09:31.036Z,16.42
2018-04-30T02:10:31.042Z,16.35
2018-04-30T02:11:31.046Z,16.41
2018-04-30T02:12:31.060Z,16.31
2018-04-30T02:13:31.072Z,16.15
2018-04-30T02:14:31.097Z,16.31
2018-04-30T02:15:31.095Z,16.15
2018-04-30T02:16:31.113Z,16.07
2018-04-30T02:17:31.146Z,16.07
2018-04-30T02:18:31.131Z,16.11
2018-04-30T02:19:31.145Z,15.94
2018-04-30T02:20:31.164Z,15.84
2018-04-30T02:21:31.170Z,15.92
2018-04-30T02:22:31.225Z,15.76
2018-04-30T02:23:31.193Z,15.74
2018-04-30T02:24:31.233Z,15.75
2018-04-30T02:25:31.224Z,15.63
2018-04-30T02:26:31.236Z,15.54
2018-04-30T02:27:31.242Z,15.52
2018-04-30T02:28:31.266Z,15.39
2018-04-30T02:29:31.270Z,15.24
2018-04-30T02:30:31.279Z,15.33
2018-04-30T02:31:31.293Z,15.30
2018-04-30T02:32:31.304Z,15.20
2018-04-30T02:33:31.383Z,15.03
2018-04-30T02:34:31.330Z,15.02
2018-04-30T02:35:31.365Z,15.01
2018-04-30T02:36:31.352Z,15.01
2018-04-30T02:37:31.360Z,15.01
2018-04-30T02:38:31.384Z,14.90
2018-04-30T02:39:31.391Z,14.91
2018-04-30T02:40:31.398Z,14.95
2018-04-30T02:41:31.413Z,14.87
2018-04-30T02:42:31.431Z,14.88
2018-04-30T02:43:31.467Z,14.80
2018-04-30T02:44:31.445Z,14.84
2018-04-30T02:45:31.458Z,14.64
2018-04-30T02:46:31.475Z,14.35
2018-04-30T02:47:31.496Z,14.52
2018-04-30T02:48:31.496Z,14.29
2018-04-30T02:49:31.507Z,14.29
2018-04-30T02:50:31.532Z,14.28
2018-04-30T02:51:31.537Z,14.31
2018-04-30T02:52:39.479Z,14.44
2018-04-30T02:54:36.071Z,14.42
2018-04-30T02:55:36.173Z,14.44
2018-04-30T02:56:36.141Z,14.37
2018-04-30T02:57:44.019Z,14.29
2018-04-30T02:59:40.824Z,14.65
2018-04-30T03:00:40.597Z,14.62
2018-04-30T03:02:45.088Z,14.44
2018-04-30T03:03:45.421Z,14.43
2018-04-30T03:05:49.673Z,14.14
2018-04-30T03:06:57.596Z,14.21
2018-04-30T03:08:43.107Z,14.19
2018-04-30T03:09:51.179Z,14.31
2018-04-30T03:11:47.892Z,13.96
2018-04-30T03:12:47.709Z,13.81
2018-04-30T03:14:52.424Z,13.73
2018-04-30T03:15:52.379Z,13.71
2018-04-30T03:17:56.893Z,13.40
2018-04-30T03:18:56.776Z,13.51
2018-04-30T03:21:02.441Z,13.44
2018-04-30T03:22:02.227Z,13.21
2018-04-30T03:24:06.775Z,13.32
2018-04-30T03:25:06.919Z,13.15
2018-04-30T03:26:14.865Z,13.20
2018-04-30T03:28:11.497Z,13.00
2018-04-30T03:29:11.313Z,12.99
2018-04-30T03:31:15.873Z,13.03
2018-04-30T03:32:16.156Z,13.04
2018-04-30T03:34:09.358Z,12.85
2018-04-30T03:35:09.636Z,12.84
2018-04-30T03:36:09.513Z,12.81
2018-04-30T03:37:09.733Z,12.57
2018-04-30T03:38:09.372Z,12.57
2018-04-30T03:39:09.465Z,12.46
2018-04-30T03:40:09.396Z,12.60
2018-04-30T03:41:09.441Z,12.64
2018-04-30T03:42:09.409Z,12.41
2018-04-30T03:43:09.417Z,12.26
2018-04-30T03:44:09.439Z,12.33
2018-04-30T03:45:09.440Z,12.16
2018-04-30T03:46:09.451Z,12.06
2018-04-30T03:47:09.467Z,11.78
2018-04-30T03:48:09.471Z,11.90
2018-04-30T03:49:09.483Z,11.75
2018-04-30T03:50:09.491Z,11.39
2018-04-30T03:51:09.516Z,11.21
2018-04-30T03:52:09.513Z,11.06
2018-04-30T03:53:09.531Z,10.80
2018-04-30T03:54:09.537Z,10.95
2018-04-30T03:55:09.553Z,10.76
2018-04-30T03:56:09.572Z,10.77
2018-04-30T03:57:09.566Z,10.78
2018-04-30T03:58:09.574Z,10.71
2018-04-30T03:59:09.593Z,10.70
2018-04-30T04:00:09.598Z,10.68
2018-04-30T04:01:09.607Z,10.63
2018-04-30T04:02:09.617Z,10.71
2018-04-30T04:03:09.705Z,10.65
2018-04-30T04:04:09.649Z,10.66
2018-04-30T04:05:09.661Z,10.70
2018-04-30T04:06:09.656Z,10.84
2018-04-30T04:07:09.668Z,10.80
2018-04-30T04:08:09.677Z,10.95
2018-04-30T04:09:09.691Z,11.19
2018-04-30T04:10:09.696Z,11.25
2018-04-30T04:11:09.712Z,11.24
2018-04-30T04:12:09.719Z,11.49
2018-04-30T04:13:09.729Z,11.47
2018-04-30T04:14:09.739Z,11.56
2018-04-30T04:15:09.747Z,11.54
2018-04-30T04:16:09.757Z,11.70
2018-04-30T04:17:09.772Z,11.64
2018-04-30T04:18:09.783Z,11.41
2018-04-30T04:19:09.824Z,11.46
2018-04-30T04:20:09.801Z,11.54
2018-04-30T04:21:09.808Z,11.68
2018-04-30T04:22:09.820Z,11.47
2018-04-30T04:23:09.831Z,11.32
2018-04-30T04:24:09.840Z,11.49
2018-04-30T04:25:09.850Z,11.52
2018-04-30T04:26:09.856Z,11.49
2018-04-30T04:27:09.871Z,11.20
2018-04-30T04:28:09.882Z,10.94
2018-04-30T04:29:09.890Z,11.21
2018-04-30T04:30:09.901Z,11.10
2018-04-30T04:31:09.911Z,10.96
2018-04-30T04:32:09.926Z,11.09
2018-04-30T04:33:09.930Z,11.19
2018-04-30T04:34:09.947Z,11.36
2018-04-30T04:35:09.954Z,11.47
2018-04-30T04:36:09.963Z,11.34
2018-04-30T04:37:09.974Z,11.43
2018-04-30T04:38:09.981Z,11.35
2018-04-30T04:39:09.989Z,11.52
2018-04-30T04:40:10.001Z,11.50
2018-04-30T04:41:10.013Z,11.19
2018-04-30T04:42:10.035Z,11.38
2018-04-30T04:43:10.029Z,11.44
2018-04-30T04:44:10.049Z,11.57
2018-04-30T04:45:10.055Z,11.68
2018-04-30T04:46:10.060Z,11.68
2018-04-30T04:47:10.072Z,11.70
2018-04-30T04:48:10.081Z,11.68
2018-04-30T04:49:10.089Z,11.65
2018-04-30T04:50:10.108Z,11.53
2018-04-30T04:51:10.115Z,11.54
2018-04-30T04:52:10.125Z,11.47
2018-04-30T04:53:10.139Z,11.50
2018-04-30T04:54:10.145Z,11.32
2018-04-30T04:55:10.151Z,11.20
2018-04-30T04:56:10.171Z,11.27
2018-04-30T04:57:10.175Z,11.11
2018-04-30T04:58:10.181Z,11.24
2018-04-30T04:59:10.194Z,11.24
2018-04-30T05:00:10.220Z,11.36
2018-04-30T05:01:10.230Z,11.29
2018-04-30T05:02:10.255Z,11.39
2018-04-30T05:03:10.231Z,11.50
2018-04-30T05:04:10.249Z,11.52
2018-04-30T05:05:10.252Z,11.50
2018-04-30T05:06:10.276Z,11.38
2018-04-30T05:07:10.303Z,11.32
2018-04-30T05:08:10.286Z,11.44
2018-04-30T05:09:10.292Z,11.52
2018-04-30T05:10:10.340Z,11.50
2018-04-30T05:11:10.313Z,11.52
2018-04-30T05:12:10.320Z,11.52
2018-04-30T05:13:10.361Z,11.52
2018-04-30T05:14:10.342Z,11.67
2018-04-30T05:15:10.349Z,11.57
2018-04-30T05:16:10.360Z,11.71
2018-04-30T05:17:10.377Z,11.75
2018-04-30T05:18:10.420Z,11.75
2018-04-30T05:19:10.390Z,11.47
2018-04-30T05:20:10.474Z,11.49
2018-04-30T05:21:10.427Z,11.41
2018-04-30T05:22:10.424Z,11.43
2018-04-30T05:23:10.431Z,11.53
2018-04-30T05:24:10.444Z,11.49
2018-04-30T05:25:10.450Z,11.68
2018-04-30T05:26:10.471Z,11.53
2018-04-30T05:27:10.477Z,11.57
2018-04-30T05:28:10.481Z,11.49
2018-04-30T05:29:10.497Z,11.56
2018-04-30T05:30:10.501Z,11.62
2018-04-30T05:31:10.509Z,11.75
2018-04-30T05:32:10.520Z,11.67
2018-04-30T05:33:10.606Z,11.74
2018-04-30T05:34:10.547Z,11.72
2018-04-30T05:35:10.553Z,11.65
2018-04-30T05:36:10.565Z,11.54
2018-04-30T05:37:10.589Z,11.54
2018-04-30T05:38:10.585Z,11.46
2018-04-30T05:39:10.590Z,11.39
2018-04-30T05:40:10.602Z,11.50
2018-04-30T05:41:10.617Z,11.39
2018-04-30T05:42:10.622Z,11.50
2018-04-30T05:43:10.634Z,11.46
2018-04-30T05:44:10.724Z,11.52
2018-04-30T05:45:10.649Z,11.52
2018-04-30T05:46:10.662Z,11.49
2018-04-30T05:47:10.669Z,11.38
2018-04-30T05:48:10.685Z,11.43
2018-04-30T05:49:10.689Z,11.49
2018-04-30T05:50:10.702Z,11.44
2018-04-30T05:51:10.713Z,11.52
2018-04-30T05:52:10.719Z,11.38
2018-04-30T05:53:10.728Z,11.41
2018-04-30T05:54:10.740Z,11.46
2018-04-30T05:55:10.832Z,11.50
2018-04-30T05:56:10.768Z,11.44
2018-04-30T05:57:10.771Z,11.41
2018-04-30T05:58:10.792Z,11.47
2018-04-30T05:59:10.788Z,11.47
2018-04-30T06:00:10.923Z,11.44
2018-04-30T06:01:10.808Z,11.50
2018-04-30T06:02:10.823Z,11.49
2018-04-30T06:03:10.859Z,11.38
2018-04-30T06:04:10.846Z,11.44
2018-04-30T06:05:10.864Z,11.47
2018-04-30T06:06:10.858Z,11.47
2018-04-30T06:07:10.971Z,11.47
2018-04-30T06:08:19.753Z,11.49
2018-04-30T06:10:04.517Z,11.47
2018-04-30T06:11:04.432Z,11.44
2018-04-30T06:13:08.871Z,11.68
2018-04-30T06:14:09.027Z,11.65
2018-04-30T06:16:13.091Z,11.82
2018-04-30T06:17:13.462Z,11.90
2018-04-30T06:19:06.329Z,11.93
2018-04-30T06:20:06.520Z,11.80
2018-04-30T06:22:11.126Z,11.89
2018-04-30T06:23:10.824Z,12.02
2018-04-30T06:25:16.349Z,11.90
2018-04-30T06:26:16.402Z,11.87
2018-04-30T06:27:16.515Z,11.86
2018-04-30T06:28:16.661Z,11.72
2018-04-30T06:29:16.382Z,11.70
2018-04-30T06:30:16.402Z,11.68
2018-04-30T06:31:16.523Z,11.64
2018-04-30T06:32:16.416Z,11.65
2018-04-30T06:33:16.423Z,11.65
2018-04-30T06:34:16.464Z,11.64
2018-04-30T06:35:16.443Z,11.50
2018-04-30T06:36:16.454Z,11.56
2018-04-30T06:37:16.460Z,11.52
2018-04-30T06:38:16.477Z,11.54
2018-04-30T06:39:16.484Z,11.65
2018-04-30T06:40:16.494Z,11.64
2018-04-30T06:41:16.522Z,11.72
2018-04-30T06:42:16.586Z,11.77
2018-04-30T06:43:16.550Z,11.68
2018-04-30T06:44:16.532Z,11.70
2018-04-30T06:45:16.549Z,11.70
2018-04-30T06:46:16.550Z,11.72
2018-04-30T06:47:16.573Z,11.74
2018-04-30T06:48:16.583Z,11.80
2018-04-30T06:49:16.581Z,11.70
2018-04-30T06:50:16.633Z,11.80
2018-04-30T06:51:16.602Z,11.87
2018-04-30T06:52:16.611Z,12.01
2018-04-30T06:53:16.621Z,12.04
2018-04-30T06:54:16.650Z,12.05
2018-04-30T06:55:16.654Z,12.16
2018-04-30T06:56:16.666Z,12.16
2018-04-30T06:57:16.660Z,12.20
2018-04-30T06:58:16.699Z,12.11
2018-04-30T06:59:16.679Z,12.13
2018-04-30T07:00:16.715Z,12.15
2018-04-30T07:01:16.697Z,12.31
2018-04-30T07:02:16.705Z,12.15
2018-04-30T07:03:16.720Z,12.11
2018-04-30T07:04:16.727Z,12.11
2018-04-30T07:05:16.740Z,12.29
2018-04-30T07:06:16.746Z,12.30
2018-04-30T07:07:16.761Z,12.45
2018-04-30T07:08:16.766Z,12.42
2018-04-30T07:09:16.952Z,12.60
2018-04-30T07:10:16.787Z,12.62
2018-04-30T07:11:16.809Z,12.71
2018-04-30T07:12:16.809Z,12.87
2018-04-30T07:13:16.856Z,12.99
2018-04-30T07:14:16.825Z,13.11
2018-04-30T07:15:16.840Z,13.22
2018-04-30T07:16:16.851Z,13.20
2018-04-30T07:17:16.854Z,13.18
2018-04-30T07:18:16.870Z,13.24
2018-04-30T07:19:16.879Z,13.25
2018-04-30T07:20:16.889Z,13.20
2018-04-30T07:21:16.896Z,13.37
2018-04-30T07:22:16.907Z,13.52
2018-04-30T07:23:16.917Z,13.54
2018-04-30T07:24:16.974Z,13.71
2018-04-30T07:25:16.940Z,13.69
2018-04-30T07:26:16.991Z,13.63
2018-04-30T07:27:16.962Z,13.62
2018-04-30T07:28:16.973Z,13.52
2018-04-30T07:29:17.008Z,13.67
2018-04-30T07:30:16.991Z,13.38
2018-04-30T07:31:17.004Z,13.37
2018-04-30T07:32:17.021Z,13.59
2018-04-30T07:33:17.085Z,13.47
2018-04-30T07:34:17.048Z,13.59
2018-04-30T07:35:17.051Z,13.70
2018-04-30T07:36:17.056Z,13.76
2018-04-30T07:37:17.067Z,13.89
2018-04-30T07:38:17.076Z,14.02
2018-04-30T07:39:17.099Z,13.87
2018-04-30T07:40:17.100Z,14.02
2018-04-30T07:41:17.119Z,13.99
2018-04-30T07:42:17.130Z,14.06
2018-04-30T07:43:17.248Z,13.76
2018-04-30T07:44:17.164Z,13.70
2018-04-30T07:45:17.157Z,13.77
2018-04-30T07:46:17.170Z,13.92
2018-04-30T07:47:17.205Z,13.99
2018-04-30T07:48:17.193Z,13.99
2018-04-30T07:49:17.245Z,13.87
2018-04-30T07:50:17.211Z,13.70
2018-04-30T07:51:17.225Z,13.33
2018-04-30T07:52:17.232Z,13.00
2018-04-30T07:53:17.372Z,12.74
2018-04-30T07:54:17.256Z,12.82
2018-04-30T07:55:17.264Z,12.88
2018-04-30T07:56:17.278Z,13.04
2018-04-30T07:57:17.336Z,13.14
2018-04-30T07:58:17.368Z,13.25
2018-04-30T07:59:17.362Z,13.32
2018-04-30T08:00:17.320Z,13.32
2018-04-30T08:01:17.331Z,13.43
2018-04-30T08:02:17.339Z,13.71
2018-04-30T08:03:17.352Z,13.83
2018-04-30T08:04:17.367Z,13.89
2018-04-30T08:05:17.418Z,13.94
2018-04-30T08:06:17.414Z,13.79
2018-04-30T08:07:17.394Z,13.98
2018-04-30T08:08:17.443Z,13.99
2018-04-30T08:09:17.418Z,14.02
2018-04-30T08:10:17.428Z,14.01
2018-04-30T08:11:17.589Z,13.81
2018-04-30T08:12:17.532Z,13.89
2018-04-30T08:13:17.752Z,14.07
2018-04-30T08:14:17.501Z,14.13
2018-04-30T08:15:17.714Z,14.14
2018-04-30T08:16:17.499Z,14.17
2018-04-30T08:17:17.498Z,14.27
2018-04-30T08:18:17.530Z,14.28
2018-04-30T08:19:17.578Z,14.39
2018-04-30T08:20:17.575Z,14.47
2018-04-30T08:21:26.596Z,14.74
2018-04-30T08:23:22.229Z,14.64
2018-04-30T08:24:22.071Z,14.62
2018-04-30T08:25:22.332Z,14.75
2018-04-30T08:26:22.457Z,14.87
2018-04-30T08:27:22.234Z,14.84
2018-04-30T08:28:22.214Z,14.64
2018-04-30T08:31:22.294Z,14.60
2018-04-30T08:32:23.539Z,14.56
2018-04-30T08:33:23.061Z,14.53
2018-04-30T08:34:23.644Z,14.54
2018-04-30T08:35:23.414Z,14.56
2018-04-30T08:36:30.129Z,14.74
2018-04-30T08:38:37.855Z,14.74
2018-04-30T08:39:20.400Z,14.65
2018-04-30T08:40:18.363Z,14.75
2018-04-30T08:41:22.308Z,14.71
2018-04-30T08:42:18.837Z,14.62
2018-04-30T08:43:18.917Z,14.65
2018-04-30T08:44:18.251Z,14.75
2018-04-30T08:45:18.282Z,14.86
2018-04-30T08:46:18.571Z,14.99
2018-04-30T08:47:19.139Z,14.98
2018-04-30T08:48:18.294Z,14.91
2018-04-30T08:49:18.311Z,14.93
2018-04-30T08:50:18.665Z,14.91
2018-04-30T08:51:18.327Z,14.94
2018-04-30T08:52:19.133Z,14.93
2018-04-30T08:53:18.356Z,14.94
2018-04-30T08:54:18.362Z,14.95
2018-04-30T08:55:19.283Z,15.05
2018-04-30T08:56:18.403Z,15.23
2018-04-30T08:57:18.423Z,15.38
2018-04-30T08:58:18.582Z,15.41
2018-04-30T08:59:18.416Z,15.60
2018-04-30T09:00:18.510Z,15.57
2018-04-30T09:01:18.441Z,15.67
2018-04-30T09:02:18.449Z,15.63
2018-04-30T09:03:18.365Z,15.64
2018-04-30T09:04:18.476Z,15.70
2018-04-30T09:05:18.509Z,15.68
2018-04-30T09:06:18.510Z,15.86
2018-04-30T09:07:18.504Z,15.93
2018-04-30T09:08:18.587Z,15.96
2018-04-30T09:09:18.532Z,15.79
2018-04-30T09:10:18.539Z,15.79
2018-04-30T09:11:18.549Z,15.67
2018-04-30T09:12:18.560Z,15.48
2018-04-30T09:13:18.573Z,15.74
2018-04-30T09:14:18.599Z,15.66
2018-04-30T09:15:18.599Z,15.60
2018-04-30T09:16:18.608Z,15.45
2018-04-30T09:17:18.617Z,15.41
2018-04-30T09:18:18.634Z,15.36
2018-04-30T09:19:18.637Z,15.30
2018-04-30T09:20:18.655Z,15.43
2018-04-30T09:21:18.663Z,15.43
2018-04-30T09:22:18.682Z,15.52
2018-04-30T09:23:18.791Z,15.72
2018-04-30T09:24:18.731Z,15.61
2018-04-30T09:25:18.706Z,15.41
2018-04-30T09:26:18.733Z,15.42
2018-04-30T09:27:18.749Z,15.49
2018-04-30T09:28:18.739Z,15.46
2018-04-30T09:29:18.753Z,15.64
2018-04-30T09:30:18.789Z,15.38
2018-04-30T09:31:18.776Z,15.23
2018-04-30T09:32:18.784Z,15.06
2018-04-30T09:33:18.828Z,15.09
2018-04-30T09:34:18.812Z,15.01
2018-04-30T09:35:18.821Z,15.05
2018-04-30T09:36:18.835Z,15.27
2018-04-30T09:37:18.848Z,15.38
2018-04-30T09:38:18.852Z,15.36
2018-04-30T09:39:18.866Z,15.48
2018-04-30T09:40:18.812Z,15.70
2018-04-30T09:41:19.642Z,15.75
2018-04-30T09:42:18.898Z,15.89
2018-04-30T09:43:18.910Z,16.03
2018-04-30T09:44:18.924Z,16.15
2018-04-30T09:45:18.945Z,16.16
2018-04-30T09:46:18.944Z,16.20
2018-04-30T09:47:18.961Z,16.33
2018-04-30T09:48:18.967Z,16.27
2018-04-30T09:49:19.051Z,16.42
2018-04-30T09:50:18.898Z,16.55
2018-04-30T09:51:19.004Z,16.62
2018-04-30T09:52:19.054Z,16.71
2018-04-30T09:53:19.028Z,16.85
2018-04-30T09:54:19.037Z,17.03
2018-04-30T09:55:19.050Z,16.88
2018-04-30T09:56:19.060Z,16.83
2018-04-30T09:57:19.075Z,16.75
2018-04-30T09:58:19.220Z,16.80
2018-04-30T09:59:19.230Z,16.73
2018-04-30T10:00:19.173Z,16.60
2018-04-30T10:01:19.122Z,16.45
2018-04-30T10:02:19.131Z,16.48
2018-04-30T10:03:19.145Z,16.50
2018-04-30T10:04:19.154Z,16.55
2018-04-30T10:05:19.164Z,16.67
2018-04-30T10:06:20.142Z,16.60
2018-04-30T10:07:19.265Z,16.58
2018-04-30T10:08:19.202Z,16.59
2018-04-30T10:09:19.220Z,16.65
2018-04-30T10:10:19.225Z,16.89
2018-04-30T10:11:19.237Z,17.06
2018-04-30T10:12:19.250Z,16.98
2018-04-30T10:13:19.263Z,17.15
2018-04-30T10:14:19.274Z,17.25
2018-04-30T10:15:19.285Z,17.25
2018-04-30T10:16:19.307Z,17.23
2018-04-30T10:17:19.308Z,17.40
2018-04-30T10:18:19.323Z,17.07
2018-04-30T10:19:19.335Z,16.89
2018-04-30T10:20:19.350Z,17.00
2018-04-30T10:21:19.363Z,17.10
2018-04-30T10:22:19.367Z,17.32
2018-04-30T10:23:19.482Z,17.53
2018-04-30T10:24:19.397Z,17.23
2018-04-30T10:25:19.406Z,17.25
2018-04-30T10:26:19.419Z,17.17
2018-04-30T10:27:19.432Z,17.29
2018-04-30T10:28:19.449Z,17.44
2018-04-30T10:29:19.455Z,17.32
2018-04-30T10:30:19.491Z,17.29
2018-04-30T10:31:19.377Z,17.11
2018-04-30T10:32:19.494Z,17.13
2018-04-30T10:33:19.504Z,17.08
2018-04-30T10:34:19.520Z,17.15
2018-04-30T10:35:19.531Z,17.35
2018-04-30T10:36:19.553Z,17.46
2018-04-30T10:37:19.563Z,17.63
2018-04-30T10:38:19.567Z,17.78
2018-04-30T10:39:19.578Z,18.00
2018-04-30T10:40:19.592Z,18.13
2018-04-30T10:41:19.615Z,17.92
2018-04-30T10:42:19.618Z,18.00
2018-04-30T10:43:19.635Z,18.13
2018-04-30T10:44:19.649Z,18.33
2018-04-30T10:45:19.653Z,18.34
2018-04-30T10:46:19.669Z,18.36
2018-04-30T10:47:19.679Z,18.44
2018-04-30T10:48:19.698Z,18.39
2018-04-30T10:49:19.706Z,18.47
2018-04-30T10:50:19.722Z,18.37
2018-04-30T10:51:19.732Z,18.34
2018-04-30T10:52:19.742Z,18.33
2018-04-30T10:53:19.788Z,18.34
2018-04-30T10:54:19.779Z,18.27
2018-04-30T10:55:19.873Z,18.29
2018-04-30T10:56:19.832Z,18.52
2018-04-30T10:57:19.831Z,18.61
2018-04-30T10:58:19.822Z,18.77
2018-04-30T10:59:19.845Z,18.70
2018-04-30T11:00:19.900Z,18.84
2018-04-30T11:01:19.888Z,18.84
2018-04-30T11:02:19.957Z,18.86
2018-04-30T11:03:19.883Z,18.68
2018-04-30T11:04:19.896Z,18.73
2018-04-30T11:05:19.915Z,18.73
2018-04-30T11:06:19.922Z,19.21
2018-04-30T11:07:19.935Z,19.36
2018-04-30T11:08:19.949Z,19.72
2018-04-30T11:09:19.963Z,20.23
2018-04-30T11:10:19.982Z,20.47
2018-04-30T11:11:20.024Z,20.99
2018-04-30T11:12:20.081Z,21.09
2018-04-30T11:13:20.024Z,21.63
2018-04-30T11:14:20.032Z,22.50
2018-04-30T11:15:20.048Z,22.27
2018-04-30T11:16:20.064Z,22.89
2018-04-30T11:17:20.081Z,23.27
2018-04-30T11:18:20.096Z,24.22
2018-04-30T11:19:20.112Z,24.60
2018-04-30T11:20:20.131Z,24.16
2018-04-30T11:21:20.163Z,23.76
2018-04-30T11:22:20.167Z,24.01
2018-04-30T11:23:20.188Z,23.94
2018-04-30T11:24:20.207Z,24.32
2018-04-30T11:25:20.231Z,24.68
2018-04-30T11:26:20.180Z,24.53
2018-04-30T11:27:20.286Z,25.02
2018-04-30T11:28:20.289Z,25.22
2018-04-30T11:29:20.316Z,25.68
2018-04-30T11:30:20.332Z,25.34
2018-04-30T11:31:20.354Z,25.22
2018-04-30T11:32:20.378Z,25.56
2018-04-30T11:33:20.399Z,25.52
2018-04-30T11:34:20.429Z,25.72
2018-04-30T11:35:20.442Z,25.35
2018-04-30T11:36:20.464Z,25.42
2018-04-30T11:37:20.487Z,26.11
2018-04-30T11:38:20.533Z,26.64
2018-04-30T11:39:20.536Z,27.39
2018-04-30T11:40:20.562Z,27.57
2018-04-30T11:41:20.663Z,27.54
2018-04-30T11:42:20.602Z,26.35
2018-04-30T11:46:25.439Z,26.11
2018-04-30T11:47:25.523Z,26.28
2018-04-30T11:49:18.814Z,26.87
2018-04-30T11:50:18.864Z,26.46
2018-04-30T11:51:18.913Z,25.53
2018-04-30T11:52:19.170Z,26.37
2018-04-30T11:53:18.892Z,25.80
2018-04-30T11:54:18.917Z,26.46
2018-04-30T11:55:18.944Z,26.76
2018-04-30T11:56:18.958Z,27.13
2018-04-30T11:57:19.017Z,28.16
2018-04-30T11:58:19.047Z,29.04
2018-04-30T11:59:19.037Z,29.00
2018-04-30T12:00:19.053Z,28.82
2018-04-30T12:01:19.079Z,28.97
2018-04-30T12:02:19.107Z,26.58
2018-04-30T12:03:19.135Z,27.88
2018-04-30T12:04:19.202Z,27.57
2018-04-30T12:05:19.176Z,27.39
2018-04-30T12:06:19.232Z,26.37
2018-04-30T12:07:19.226Z,27.16
2018-04-30T12:08:19.260Z,27.64
2018-04-30T12:09:19.290Z,26.11
2018-04-30T12:10:19.307Z,26.69
2018-04-30T12:11:19.345Z,27.20
2018-04-30T12:12:19.365Z,28.43
2018-04-30T12:13:19.376Z,27.28
2018-04-30T12:14:19.399Z,26.84
2018-04-30T12:15:19.437Z,28.22
2018-04-30T12:16:19.452Z,28.54
2018-04-30T12:17:19.500Z,27.76
2018-04-30T12:18:19.497Z,27.32
2018-04-30T12:19:19.529Z,27.61
2018-04-30T12:20:19.555Z,27.84
2018-04-30T12:21:19.574Z,27.05
2018-04-30T12:22:19.611Z,26.49
2018-04-30T12:23:19.656Z,27.20
2018-04-30T12:24:19.673Z,27.82
2018-04-30T12:25:19.684Z,27.53
2018-04-30T12:26:19.703Z,27.04
2018-04-30T12:27:19.733Z,27.80
2018-04-30T12:28:19.757Z,27.24
2018-04-30T12:29:19.782Z,27.32
2018-04-30T12:30:19.910Z,28.69
2018-04-30T12:31:19.833Z,29.06
2018-04-30T12:32:19.970Z,29.60
2018-04-30T12:33:19.885Z,28.56
2018-04-30T12:34:19.913Z,28.60
2018-04-30T12:35:19.935Z,27.66
2018-04-30T12:36:19.962Z,28.38
2018-04-30T12:37:19.986Z,28.51
2018-04-30T12:38:20.037Z,28.58
2018-04-30T12:39:20.039Z,28.59
2018-04-30T12:40:20.063Z,28.62
2018-04-30T12:41:20.090Z,27.53
2018-04-30T12:42:20.150Z,28.01
2018-04-30T12:43:20.144Z,28.46
2018-04-30T12:44:20.171Z,28.53
2018-04-30T12:47:39.272Z,28.07
2018-04-30T12:48:39.153Z,29.19
2018-04-30T12:50:43.849Z,29.71
2018-04-30T12:51:43.635Z,29.22
2018-04-30T12:53:38.428Z,30.68
2018-04-30T12:54:38.613Z,31.65
2018-04-30T12:56:43.073Z,28.09
2018-04-30T12:57:43.119Z,27.50
2018-04-30T12:58:43.231Z,26.73
2018-04-30T12:59:43.116Z,27.17
2018-04-30T13:00:42.995Z,26.32
2018-04-30T13:01:42.939Z,26.50
2018-04-30T13:02:42.962Z,27.26
2018-04-30T13:03:42.957Z,27.36
2018-04-30T13:04:42.999Z,27.57
2018-04-30T13:05:43.031Z,28.31
2018-04-30T13:06:43.042Z,28.13
2018-04-30T13:07:43.065Z,27.58
2018-04-30T13:08:43.149Z,27.84
2018-04-30T13:09:43.134Z,27.91
2018-04-30T13:10:43.145Z,26.68
2018-04-30T13:11:43.183Z,27.36
2018-04-30T13:12:43.395Z,28.04
2018-04-30T13:13:43.270Z,28.09
2018-04-30T13:14:43.264Z,29.29
2018-04-30T13:15:43.277Z,29.34
2018-04-30T13:16:43.316Z,29.34
2018-04-30T13:17:43.340Z,28.54
2018-04-30T13:18:43.363Z,29.60
2018-04-30T13:19:43.397Z,28.13
2018-04-30T13:20:44.020Z,27.50
2018-04-30T13:22:46.238Z,28.44
2018-04-30T13:23:43.499Z,28.60
2018-04-30T13:24:44.308Z,28.90
2018-04-30T13:25:43.556Z,29.71
2018-04-30T13:26:43.957Z,30.38